Asiatic King — 9V3931 — position and weather

sailwx.info

Track history (hours):
 
Tides and Currents Weather Stations Pressure Air Temp Water Temp Dewpoint Dewpoint Depression Visibility Wind Speed Wind Dir Waves Ship Positions

Asiatic King

Last reported at 2018-Jun-21 01:18 UTC. Time now 2018-Jun-25 00:42 UTC.
Position N 32°57' E 034°33'.

Length 148 m; draft 7.5 m.

Type: Ship. MMSI: 565584000.

Date/timePositionNaut miles runAvg speedWind from/ knotsBaromVisibWave heightAir tempDewpointWater temp
2018-Jun-21 01:18N 32°57' E 034°33'410.8
2018-Jun-21 00:56N 32°56' E 034°38'511.3
2018-Jun-21 00:28N 32°55' E 034°44'511.2
2018-Jun-20 23:59N 32°54' E 034°50'611.2
2018-Jun-20 23:27N 32°52' E 034°57'2 0.1
2018-Jun-20 00:49N 32°51' E 034°60'4 9.8
2018-Jun-20 00:24N 32°52' E 034°55'513.3
2018-Jun-20 00:00N 32°53' E 034°49'611.8
2018-Jun-19 23:29N 32°54' E 034°42'  
2018-Jun-14 20:21N 44°46' E 012°44'811.5
2018-Jun-14 19:40N 44°54' E 012°47'211.4
2018-Jun-14 19:29N 44°56' E 012°48'611.7
2018-Jun-14 19:00N 45°01' E 012°45'611.6
2018-Jun-14 18:30N 45°06' E 012°41'611.6
2018-Jun-14 18:00N 45°10' E 012°35'611.4
2018-Jun-14 17:30N 45°14' E 012°30'611.2
2018-Jun-14 17:00N 45°18' E 012°24'611.0
2018-Jun-14 16:28N 45°21' E 012°16'4 8.9
2018-Jun-14 16:00N 45°25' E 012°16'3 4.9
2018-Jun-14 15:29N 45°27' E 012°15'0 0.0
2018-Jun-14 14:59N 45°27' E 012°15'0 0.0
2018-Jun-14 14:29N 45°27' E 012°15'0 0.0
2018-Jun-14 13:58N 45°27' E 012°15'0 0.0
2018-Jun-14 13:28N 45°27' E 012°15'0 0.0
2018-Jun-14 12:58N 45°27' E 012°15'0 0.0
2018-Jun-14 12:28N 45°27' E 012°15'0 0.0
2018-Jun-14 11:52N 45°27' E 012°15'0 0.0
2018-Jun-14 11:21N 45°27' E 012°15'0 0.0
2018-Jun-14 10:51N 45°27' E 012°15'0 0.0
2018-Jun-14 10:27N 45°27' E 012°15'0 0.0
2018-Jun-14 10:00N 45°27' E 012°15'0 0.0
2018-Jun-14 09:26N 45°27' E 012°15'0 0.0
2018-Jun-14 08:56N 45°27' E 012°15'0 0.0
2018-Jun-14 08:29N 45°27' E 012°15'0 0.0
2018-Jun-14 07:59N 45°27' E 012°15'0 0.0
2018-Jun-14 07:29N 45°27' E 012°15'0 0.0
2018-Jun-14 06:58N 45°27' E 012°15'0 0.0
2018-Jun-14 06:28N 45°27' E 012°15'0 0.0
2018-Jun-14 05:58N 45°27' E 012°15'0 0.0
2018-Jun-14 05:28N 45°27' E 012°15'0 0.0
2018-Jun-14 04:54N 45°27' E 012°15'0 0.0
2018-Jun-14 04:30N 45°27' E 012°15'0 0.0
2018-Jun-14 04:00N 45°27' E 012°15'0 0.0
2018-Jun-14 03:30N 45°27' E 012°15'0 0.0
2018-Jun-14 03:00N 45°27' E 012°15'0 0.0
2018-Jun-14 02:29N 45°27' E 012°15'0 0.0
2018-Jun-14 01:59N 45°27' E 012°15'0 0.0
2018-Jun-14 01:29N 45°27' E 012°15'0 0.0
2018-Jun-14 00:59N 45°27' E 012°15'0 0.0
2018-Jun-14 00:29N 45°27' E 012°15'0 0.0
2018-Jun-13 23:58N 45°27' E 012°15'0 0.0
2018-Jun-13 23:28N 45°27' E 012°15'0 0.0
2018-Jun-13 22:58N 45°27' E 012°15'0 0.0
2018-Jun-13 22:28N 45°27' E 012°15'0 0.0
2018-Jun-13 21:57N 45°27' E 012°15'0 0.0
2018-Jun-13 21:30N 45°27' E 012°15'0 0.0
2018-Jun-13 21:00N 45°27' E 012°15'0 0.0
2018-Jun-13 20:30N 45°27' E 012°15'1 2.7
2018-Jun-13 20:00N 45°26' E 012°16'4 8.1
2018-Jun-13 19:30N 45°22' E 012°15'4 9.0
2018-Jun-13 19:00N 45°20' E 012°21'510.5
2018-Jun-13 18:31N 45°18' E 012°28'612.5
2018-Jun-13 18:00N 45°20' E 012°37'713.5
2018-Jun-13 17:30N 45°23' E 012°45'713.8
2018-Jun-13 17:00N 45°26' E 012°54'713.0
2018-Jun-13 16:28N 45°29' E 013°03'613.1
2018-Jun-13 16:00N 45°31' E 013°11'612.2
2018-Jun-13 15:30N 45°33' E 013°19'713.6
2018-Jun-13 15:00N 45°36' E 013°28'613.0
2018-Jun-13 14:31N 45°36' E 013°37'611.4
2018-Jun-13 14:00N 45°33' E 013°44'0 0.3
2018-Jun-13 13:28N 45°33' E 013°44'0 0.0
2018-Jun-13 12:58N 45°33' E 013°44'0 0.0
2018-Jun-13 12:28N 45°33' E 013°44'0 0.0
2018-Jun-13 12:00N 45°33' E 013°44'0 0.0
2018-Jun-13 11:30N 45°33' E 013°44'0 0.0
2018-Jun-13 11:00N 45°33' E 013°44'0 0.0
2018-Jun-13 10:27N 45°33' E 013°44'0 0.0
2018-Jun-13 10:00N 45°33' E 013°44'0 0.0
2018-Jun-13 09:29N 45°33' E 013°44'0 0.0
2018-Jun-13 08:47N 45°33' E 013°44'0 0.0
2018-Jun-13 08:29N 45°33' E 013°44'0 0.0
2018-Jun-13 07:59N 45°33' E 013°44'0 0.0
2018-Jun-13 07:28N 45°33' E 013°44'0 0.0
2018-Jun-13 06:58N 45°33' E 013°44'0 0.0
2018-Jun-13 06:16N 45°33' E 013°44'0 0.0
2018-Jun-13 05:55N 45°33' E 013°44'0 0.0
2018-Jun-13 05:25N 45°33' E 013°44'0 0.0
2018-Jun-13 05:00N 45°33' E 013°44'0 0.0
2018-Jun-13 04:30N 45°33' E 013°44'0 0.0
2018-Jun-13 03:57N 45°33' E 013°44'0 0.0
2018-Jun-13 03:30N 45°33' E 013°44'0 0.0
2018-Jun-13 02:59N 45°33' E 013°44'0 0.0
2018-Jun-13 02:29N 45°33' E 013°44'0 0.0
2018-Jun-13 01:50N 45°33' E 013°44'0 0.0
2018-Jun-13 01:23N 45°33' E 013°44'0 0.0
2018-Jun-13 00:59N 45°33' E 013°44'0 0.0
2018-Jun-13 00:25N 45°33' E 013°44'0 0.0
2018-Jun-12 23:58N 45°33' E 013°44'0 0.0
2018-Jun-12 23:25N 45°33' E 013°44'0 0.0
2018-Jun-12 22:58N 45°33' E 013°44'0 0.0
2018-Jun-12 22:28N 45°33' E 013°44'0 0.0
2018-Jun-12 22:00N 45°33' E 013°44'0 0.0
2018-Jun-12 21:27N 45°33' E 013°44'0 0.0
2018-Jun-12 20:57N 45°33' E 013°44'0 0.0
2018-Jun-12 20:27N 45°33' E 013°44'0 0.0
2018-Jun-12 19:59N 45°33' E 013°44'0 0.0
2018-Jun-12 19:17N 45°33' E 013°44'0 0.0
2018-Jun-12 18:59N 45°33' E 013°44'0 0.0
2018-Jun-12 18:29N 45°33' E 013°44'0 0.0
2018-Jun-12 17:59N 45°33' E 013°44'0 0.0
2018-Jun-12 17:25N 45°33' E 013°44'0 0.0
2018-Jun-12 16:58N 45°33' E 013°44'0 0.2
2018-Jun-12 16:30N 45°33' E 013°44'1 2.4
2018-Jun-12 16:00N 45°34' E 013°42'2 4.1
2018-Jun-12 15:30N 45°34' E 013°40'2 3.0
2018-Jun-12 15:00N 45°34' E 013°37'1 3.0
2018-Jun-12 14:30N 45°35' E 013°35'1 1.2
2018-Jun-12 14:00N 45°35' E 013°35'2 3.6
2018-Jun-12 13:30N 45°35' E 013°32'2 5.0
2018-Jun-12 13:00N 45°34' E 013°29'3 5.1
2018-Jun-12 12:30N 45°32' E 013°26'2 4.5
2018-Jun-12 12:00N 45°31' E 013°24'2 4.9
2018-Jun-12 11:30N 45°30' E 013°21'2 4.4
2018-Jun-12 11:00N 45°29' E 013°18'1 1.5
2018-Jun-12 10:30N 45°28' E 013°17'4 8.2
2018-Jun-12 10:01N 45°26' E 013°13'5 9.9
2018-Jun-12 09:31N 45°21' E 013°13'611.6
2018-Jun-12 09:00N 45°15' E 013°15'611.3
2018-Jun-12 08:31N 45°09' E 013°16'611.7
2018-Jun-12 08:00N 45°04' E 013°19'611.8
2018-Jun-12 07:30N 44°58' E 013°23'611.8
2018-Jun-12 07:00N 44°53' E 013°27'611.5
2018-Jun-12 06:31N 44°49' E 013°31'611.7
2018-Jun-12 06:00N 44°44' E 013°35'611.7
2018-Jun-12 05:31N 44°39' E 013°40'611.8
2018-Jun-12 05:00N 44°34' E 013°44'611.9
2018-Jun-12 04:30N 44°29' E 013°49'815.4
2018-Jun-12 04:00N 44°22' E 013°55'916.8
2018-Jun-12 03:30N 44°15' E 014°01'  
Track history (hours):
 
Tides and Currents Weather Stations Pressure Air Temp Water Temp Dewpoint Dewpoint Depression Visibility Wind Speed Wind Dir Waves Ship Positions

Asiatic King

Last reported at 2018-Jun-21 01:18 UTC. Time now 2018-Jun-25 00:42 UTC.
Position N 32°57' E 034°33'.

Length 148 m; draft 7.5 m.

Type: Ship. MMSI: 565584000.

Date/timePositionNaut miles runAvg speedWind from/ knotsBaromVisibWave heightAir tempDewpointWater temp
2018-Jun-21 01:18N 32°57' E 034°33'410.8
2018-Jun-21 00:56N 32°56' E 034°38'511.3
2018-Jun-21 00:28N 32°55' E 034°44'511.2
2018-Jun-20 23:59N 32°54' E 034°50'611.2
2018-Jun-20 23:27N 32°52' E 034°57'2 0.1
2018-Jun-20 00:49N 32°51' E 034°60'4 9.8
2018-Jun-20 00:24N 32°52' E 034°55'513.3
2018-Jun-20 00:00N 32°53' E 034°49'611.8
2018-Jun-19 23:29N 32°54' E 034°42'  
2018-Jun-14 20:21N 44°46' E 012°44'811.5
2018-Jun-14 19:40N 44°54' E 012°47'211.4
2018-Jun-14 19:29N 44°56' E 012°48'611.7
2018-Jun-14 19:00N 45°01' E 012°45'611.6
2018-Jun-14 18:30N 45°06' E 012°41'611.6
2018-Jun-14 18:00N 45°10' E 012°35'611.4
2018-Jun-14 17:30N 45°14' E 012°30'611.2
2018-Jun-14 17:00N 45°18' E 012°24'611.0
2018-Jun-14 16:28N 45°21' E 012°16'4 8.9
2018-Jun-14 16:00N 45°25' E 012°16'3 4.9
2018-Jun-14 15:29N 45°27' E 012°15'0 0.0
2018-Jun-14 14:59N 45°27' E 012°15'0 0.0
2018-Jun-14 14:29N 45°27' E 012°15'0 0.0
2018-Jun-14 13:58N 45°27' E 012°15'0 0.0
2018-Jun-14 13:28N 45°27' E 012°15'0 0.0
2018-Jun-14 12:58N 45°27' E 012°15'0 0.0
2018-Jun-14 12:28N 45°27' E 012°15'0 0.0
2018-Jun-14 11:52N 45°27' E 012°15'0 0.0
2018-Jun-14 11:21N 45°27' E 012°15'0 0.0
2018-Jun-14 10:51N 45°27' E 012°15'0 0.0
2018-Jun-14 10:27N 45°27' E 012°15'0 0.0
2018-Jun-14 10:00N 45°27' E 012°15'0 0.0
2018-Jun-14 09:26N 45°27' E 012°15'0 0.0
2018-Jun-14 08:56N 45°27' E 012°15'0 0.0
2018-Jun-14 08:29N 45°27' E 012°15'0 0.0
2018-Jun-14 07:59N 45°27' E 012°15'0 0.0
2018-Jun-14 07:29N 45°27' E 012°15'0 0.0
2018-Jun-14 06:58N 45°27' E 012°15'0 0.0
2018-Jun-14 06:28N 45°27' E 012°15'0 0.0
2018-Jun-14 05:58N 45°27' E 012°15'0 0.0
2018-Jun-14 05:28N 45°27' E 012°15'0 0.0
2018-Jun-14 04:54N 45°27' E 012°15'0 0.0
2018-Jun-14 04:30N 45°27' E 012°15'0 0.0
2018-Jun-14 04:00N 45°27' E 012°15'0 0.0
2018-Jun-14 03:30N 45°27' E 012°15'0 0.0
2018-Jun-14 03:00N 45°27' E 012°15'0 0.0
2018-Jun-14 02:29N 45°27' E 012°15'0 0.0
2018-Jun-14 01:59N 45°27' E 012°15'0 0.0
2018-Jun-14 01:29N 45°27' E 012°15'0 0.0
2018-Jun-14 00:59N 45°27' E 012°15'0 0.0
2018-Jun-14 00:29N 45°27' E 012°15'0 0.0
2018-Jun-13 23:58N 45°27' E 012°15'0 0.0
2018-Jun-13 23:28N 45°27' E 012°15'0 0.0
2018-Jun-13 22:58N 45°27' E 012°15'0 0.0
2018-Jun-13 22:28N 45°27' E 012°15'0 0.0
2018-Jun-13 21:57N 45°27' E 012°15'0 0.0
2018-Jun-13 21:30N 45°27' E 012°15'0 0.0
2018-Jun-13 21:00N 45°27' E 012°15'0 0.0
2018-Jun-13 20:30N 45°27' E 012°15'1 2.7
2018-Jun-13 20:00N 45°26' E 012°16'4 8.1
2018-Jun-13 19:30N 45°22' E 012°15'4 9.0
2018-Jun-13 19:00N 45°20' E 012°21'510.5
2018-Jun-13 18:31N 45°18' E 012°28'612.5
2018-Jun-13 18:00N 45°20' E 012°37'713.5
2018-Jun-13 17:30N 45°23' E 012°45'713.8
2018-Jun-13 17:00N 45°26' E 012°54'713.0
2018-Jun-13 16:28N 45°29' E 013°03'613.1
2018-Jun-13 16:00N 45°31' E 013°11'612.2
2018-Jun-13 15:30N 45°33' E 013°19'713.6
2018-Jun-13 15:00N 45°36' E 013°28'613.0
2018-Jun-13 14:31N 45°36' E 013°37'611.4
2018-Jun-13 14:00N 45°33' E 013°44'0 0.3
2018-Jun-13 13:28N 45°33' E 013°44'0 0.0
2018-Jun-13 12:58N 45°33' E 013°44'0 0.0
2018-Jun-13 12:28N 45°33' E 013°44'0 0.0
2018-Jun-13 12:00N 45°33' E 013°44'0 0.0
2018-Jun-13 11:30N 45°33' E 013°44'0 0.0
2018-Jun-13 11:00N 45°33' E 013°44'0 0.0
2018-Jun-13 10:27N 45°33' E 013°44'0 0.0
2018-Jun-13 10:00N 45°33' E 013°44'0 0.0
2018-Jun-13 09:29N 45°33' E 013°44'0 0.0
2018-Jun-13 08:47N 45°33' E 013°44'0 0.0
2018-Jun-13 08:29N 45°33' E 013°44'0 0.0
2018-Jun-13 07:59N 45°33' E 013°44'0 0.0
2018-Jun-13 07:28N 45°33' E 013°44'0 0.0
2018-Jun-13 06:58N 45°33' E 013°44'0 0.0
2018-Jun-13 06:16N 45°33' E 013°44'0 0.0
2018-Jun-13 05:55N 45°33' E 013°44'0 0.0
2018-Jun-13 05:25N 45°33' E 013°44'0 0.0
2018-Jun-13 05:00N 45°33' E 013°44'0 0.0
2018-Jun-13 04:30N 45°33' E 013°44'0 0.0
2018-Jun-13 03:57N 45°33' E 013°44'0 0.0
2018-Jun-13 03:30N 45°33' E 013°44'0 0.0
2018-Jun-13 02:59N 45°33' E 013°44'0 0.0
2018-Jun-13 02:29N 45°33' E 013°44'0 0.0
2018-Jun-13 01:50N 45°33' E 013°44'0 0.0
2018-Jun-13 01:23N 45°33' E 013°44'0 0.0
2018-Jun-13 00:59N 45°33' E 013°44'0 0.0
2018-Jun-13 00:25N 45°33' E 013°44'0 0.0
2018-Jun-12 23:58N 45°33' E 013°44'0 0.0
2018-Jun-12 23:25N 45°33' E 013°44'0 0.0
2018-Jun-12 22:58N 45°33' E 013°44'0 0.0
2018-Jun-12 22:28N 45°33' E 013°44'0 0.0
2018-Jun-12 22:00N 45°33' E 013°44'0 0.0
2018-Jun-12 21:27N 45°33' E 013°44'0 0.0
2018-Jun-12 20:57N 45°33' E 013°44'0 0.0
2018-Jun-12 20:27N 45°33' E 013°44'0 0.0
2018-Jun-12 19:59N 45°33' E 013°44'0 0.0
2018-Jun-12 19:17N 45°33' E 013°44'0 0.0
2018-Jun-12 18:59N 45°33' E 013°44'0 0.0
2018-Jun-12 18:29N 45°33' E 013°44'0 0.0
2018-Jun-12 17:59N 45°33' E 013°44'0 0.0
2018-Jun-12 17:25N 45°33' E 013°44'0 0.0
2018-Jun-12 16:58N 45°33' E 013°44'0 0.2
2018-Jun-12 16:30N 45°33' E 013°44'1 2.4
2018-Jun-12 16:00N 45°34' E 013°42'2 4.1
2018-Jun-12 15:30N 45°34' E 013°40'2 3.0
2018-Jun-12 15:00N 45°34' E 013°37'1 3.0
2018-Jun-12 14:30N 45°35' E 013°35'1 1.2
2018-Jun-12 14:00N 45°35' E 013°35'2 3.6
2018-Jun-12 13:30N 45°35' E 013°32'2 5.0
2018-Jun-12 13:00N 45°34' E 013°29'3 5.1
2018-Jun-12 12:30N 45°32' E 013°26'2 4.5
2018-Jun-12 12:00N 45°31' E 013°24'2 4.9
2018-Jun-12 11:30N 45°30' E 013°21'2 4.4
2018-Jun-12 11:00N 45°29' E 013°18'1 1.5
2018-Jun-12 10:30N 45°28' E 013°17'4 8.2
2018-Jun-12 10:01N 45°26' E 013°13'5 9.9
2018-Jun-12 09:31N 45°21' E 013°13'611.6
2018-Jun-12 09:00N 45°15' E 013°15'611.3
2018-Jun-12 08:31N 45°09' E 013°16'611.7
2018-Jun-12 08:00N 45°04' E 013°19'611.8
2018-Jun-12 07:30N 44°58' E 013°23'611.8
2018-Jun-12 07:00N 44°53' E 013°27'611.5
2018-Jun-12 06:31N 44°49' E 013°31'611.7
2018-Jun-12 06:00N 44°44' E 013°35'611.7
2018-Jun-12 05:31N 44°39' E 013°40'611.8
2018-Jun-12 05:00N 44°34' E 013°44'611.9
2018-Jun-12 04:30N 44°29' E 013°49'815.4
2018-Jun-12 04:00N 44°22' E 013°55'916.8
2018-Jun-12 03:30N 44°15' E 014°01'  

Dump ship's entire track history